sensor_id;sensor_type;location;lat;lon;timestamp;temperature;humidity
38090;DHT22;23904;52.322;10.232;2023-07-09T00:00:14;22.30;76.80
38090;DHT22;23904;52.322;10.232;2023-07-09T00:02:43;22.30;77.10
38090;DHT22;23904;52.322;10.232;2023-07-09T00:05:14;22.30;76.60
38090;DHT22;23904;52.322;10.232;2023-07-09T00:07:42;22.20;76.70
38090;DHT22;23904;52.322;10.232;2023-07-09T00:10:14;22.20;76.80
38090;DHT22;23904;52.322;10.232;2023-07-09T00:12:41;22.20;77.40
38090;DHT22;23904;52.322;10.232;2023-07-09T00:15:09;22.10;77.50
38090;DHT22;23904;52.322;10.232;2023-07-09T00:17:36;22.10;77.00
38090;DHT22;23904;52.322;10.232;2023-07-09T00:20:03;22.10;77.00
38090;DHT22;23904;52.322;10.232;2023-07-09T00:22:36;22.10;77.00
38090;DHT22;23904;52.322;10.232;2023-07-09T00:25:02;22.10;77.10
38090;DHT22;23904;52.322;10.232;2023-07-09T00:27:29;22.10;77.20
38090;DHT22;23904;52.322;10.232;2023-07-09T00:29:56;22.00;77.40
38090;DHT22;23904;52.322;10.232;2023-07-09T00:32:21;22.00;77.70
38090;DHT22;23904;52.322;10.232;2023-07-09T00:34:48;21.90;78.00
38090;DHT22;23904;52.322;10.232;2023-07-09T00:37:19;21.90;78.10
38090;DHT22;23904;52.322;10.232;2023-07-09T00:39:45;21.90;78.50
38090;DHT22;23904;52.322;10.232;2023-07-09T00:42:18;21.80;78.40
38090;DHT22;23904;52.322;10.232;2023-07-09T00:44:46;21.90;78.60
38090;DHT22;23904;52.322;10.232;2023-07-09T00:47:42;21.90;78.40
38090;DHT22;23904;52.322;10.232;2023-07-09T00:50:11;21.80;78.40
38090;DHT22;23904;52.322;10.232;2023-07-09T00:52:49;21.80;78.80
38090;DHT22;23904;52.322;10.232;2023-07-09T00:55:24;21.70;79.00
38090;DHT22;23904;52.322;10.232;2023-07-09T00:57:56;21.70;78.90
38090;DHT22;23904;52.322;10.232;2023-07-09T01:00:48;21.70;79.30
38090;DHT22;23904;52.322;10.232;2023-07-09T01:03:48;21.70;79.00
38090;DHT22;23904;52.322;10.232;2023-07-09T01:06:23;21.60;79.20
38090;DHT22;23904;52.322;10.232;2023-07-09T01:08:55;21.60;79.30
38090;DHT22;23904;52.322;10.232;2023-07-09T01:11:22;21.50;79.30
38090;DHT22;23904;52.322;10.232;2023-07-09T01:13:54;21.50;79.60
38090;DHT22;23904;52.322;10.232;2023-07-09T01:16:25;21.50;79.70
38090;DHT22;23904;52.322;10.232;2023-07-09T01:18:53;21.40;80.10
38090;DHT22;23904;52.322;10.232;2023-07-09T01:21:19;21.40;80.40
38090;DHT22;23904;52.322;10.232;2023-07-09T01:23:46;21.40;80.40
38090;DHT22;23904;52.322;10.232;2023-07-09T01:26:16;21.30;80.50
38090;DHT22;23904;52.322;10.232;2023-07-09T01:28:45;21.30;80.50
38090;DHT22;23904;52.322;10.232;2023-07-09T01:31:12;21.30;80.80
38090;DHT22;23904;52.322;10.232;2023-07-09T01:33:43;21.20;81.00
38090;DHT22;23904;52.322;10.232;2023-07-09T01:36:15;21.20;81.90
38090;DHT22;23904;52.322;10.232;2023-07-09T01:38:43;21.20;80.90
38090;DHT22;23904;52.322;10.232;2023-07-09T01:41:09;21.10;81.10
38090;DHT22;23904;52.322;10.232;2023-07-09T01:43:39;21.10;81.40
38090;DHT22;23904;52.322;10.232;2023-07-09T01:46:09;21.10;81.30
38090;DHT22;23904;52.322;10.232;2023-07-09T01:48:37;21.00;81.30
38090;DHT22;23904;52.322;10.232;2023-07-09T01:51:07;21.00;81.50
38090;DHT22;23904;52.322;10.232;2023-07-09T01:53:35;21.00;81.40
38090;DHT22;23904;52.322;10.232;2023-07-09T01:56:03;21.00;82.00
38090;DHT22;23904;52.322;10.232;2023-07-09T01:58:29;20.90;82.00
38090;DHT22;23904;52.322;10.232;2023-07-09T02:00:56;20.90;82.20
38090;DHT22;23904;52.322;10.232;2023-07-09T02:03:21;20.90;82.40
38090;DHT22;23904;52.322;10.232;2023-07-09T02:05:52;20.90;82.00
38090;DHT22;23904;52.322;10.232;2023-07-09T02:08:19;20.90;82.20
38090;DHT22;23904;52.322;10.232;2023-07-09T02:10:45;20.90;82.50
38090;DHT22;23904;52.322;10.232;2023-07-09T02:13:13;20.80;82.60
38090;DHT22;23904;52.322;10.232;2023-07-09T02:15:39;20.80;82.60
38090;DHT22;23904;52.322;10.232;2023-07-09T02:18:09;20.70;82.70
38090;DHT22;23904;52.322;10.232;2023-07-09T02:20:35;20.70;83.00
38090;DHT22;23904;52.322;10.232;2023-07-09T02:23:01;20.70;82.90
38090;DHT22;23904;52.322;10.232;2023-07-09T02:25:27;20.70;82.90
38090;DHT22;23904;52.322;10.232;2023-07-09T02:27:52;20.70;82.50
38090;DHT22;23904;52.322;10.232;2023-07-09T02:30:18;20.70;83.20
38090;DHT22;23904;52.322;10.232;2023-07-09T02:32:43;20.70;83.10
38090;DHT22;23904;52.322;10.232;2023-07-09T02:35:09;20.60;83.10
38090;DHT22;23904;52.322;10.232;2023-07-09T02:37:34;20.70;83.30
38090;DHT22;23904;52.322;10.232;2023-07-09T02:40:00;20.50;83.30
38090;DHT22;23904;52.322;10.232;2023-07-09T02:42:26;20.50;84.00
38090;DHT22;23904;52.322;10.232;2023-07-09T02:44:51;20.50;84.10
38090;DHT22;23904;52.322;10.232;2023-07-09T02:47:17;20.50;84.20
38090;DHT22;23904;52.322;10.232;2023-07-09T02:49:44;20.40;84.40
38090;DHT22;23904;52.322;10.232;2023-07-09T02:52:12;20.50;84.00
38090;DHT22;23904;52.322;10.232;2023-07-09T02:54:38;20.40;84.60
38090;DHT22;23904;52.322;10.232;2023-07-09T02:57:04;20.30;84.80
38090;DHT22;23904;52.322;10.232;2023-07-09T02:59:30;20.30;84.50
38090;DHT22;23904;52.322;10.232;2023-07-09T03:01:56;20.30;84.60
38090;DHT22;23904;52.322;10.232;2023-07-09T03:04:22;20.30;84.90
38090;DHT22;23904;52.322;10.232;2023-07-09T03:06:47;20.40;84.70
38090;DHT22;23904;52.322;10.232;2023-07-09T03:09:13;20.30;84.70
38090;DHT22;23904;52.322;10.232;2023-07-09T03:11:39;20.30;84.60
38090;DHT22;23904;52.322;10.232;2023-07-09T03:14:04;20.30;85.10
38090;DHT22;23904;52.322;10.232;2023-07-09T03:16:33;20.30;85.20
38090;DHT22;23904;52.322;10.232;2023-07-09T03:19:00;20.30;85.20
38090;DHT22;23904;52.322;10.232;2023-07-09T03:21:27;20.30;85.20
38090;DHT22;23904;52.322;10.232;2023-07-09T03:23:54;20.30;84.90
38090;DHT22;23904;52.322;10.232;2023-07-09T03:26:20;20.30;85.20
38090;DHT22;23904;52.322;10.232;2023-07-09T03:28:45;20.30;85.40
38090;DHT22;23904;52.322;10.232;2023-07-09T03:31:11;20.30;84.80
38090;DHT22;23904;52.322;10.232;2023-07-09T03:33:37;20.30;84.80
38090;DHT22;23904;52.322;10.232;2023-07-09T03:36:03;20.20;85.70
38090;DHT22;23904;52.322;10.232;2023-07-09T03:38:30;20.30;85.60
38090;DHT22;23904;52.322;10.232;2023-07-09T03:40:56;20.20;85.80
38090;DHT22;23904;52.322;10.232;2023-07-09T03:43:22;20.20;85.60
38090;DHT22;23904;52.322;10.232;2023-07-09T03:45:49;20.20;86.50
38090;DHT22;23904;52.322;10.232;2023-07-09T03:48:16;20.10;86.60
38090;DHT22;23904;52.322;10.232;2023-07-09T03:50:44;20.00;86.80
38090;DHT22;23904;52.322;10.232;2023-07-09T03:53:11;20.10;86.80
38090;DHT22;23904;52.322;10.232;2023-07-09T03:55:37;20.10;86.90
38090;DHT22;23904;52.322;10.232;2023-07-09T03:58:03;20.10;86.90
38090;DHT22;23904;52.322;10.232;2023-07-09T04:00:29;20.10;86.80
38090;DHT22;23904;52.322;10.232;2023-07-09T04:02:56;20.10;86.90
38090;DHT22;23904;52.322;10.232;2023-07-09T04:05:23;20.10;86.90
38090;DHT22;23904;52.322;10.232;2023-07-09T04:07:49;20.00;87.30
38090;DHT22;23904;52.322;10.232;2023-07-09T04:10:14;20.10;86.90
38090;DHT22;23904;52.322;10.232;2023-07-09T04:12:40;20.10;86.80
38090;DHT22;23904;52.322;10.232;2023-07-09T04:15:07;20.10;87.10
38090;DHT22;23904;52.322;10.232;2023-07-09T04:17:33;20.10;87.50
38090;DHT22;23904;52.322;10.232;2023-07-09T04:19:59;20.20;87.90
38090;DHT22;23904;52.322;10.232;2023-07-09T04:22:25;20.10;87.60
38090;DHT22;23904;52.322;10.232;2023-07-09T04:24:50;20.20;87.70
38090;DHT22;23904;52.322;10.232;2023-07-09T04:27:18;20.20;87.60
38090;DHT22;23904;52.322;10.232;2023-07-09T04:29:44;20.20;87.80
38090;DHT22;23904;52.322;10.232;2023-07-09T04:32:14;20.20;87.70
38090;DHT22;23904;52.322;10.232;2023-07-09T04:34:40;20.20;87.80
38090;DHT22;23904;52.322;10.232;2023-07-09T04:37:10;20.20;88.10
38090;DHT22;23904;52.322;10.232;2023-07-09T04:39:37;20.20;88.30
38090;DHT22;23904;52.322;10.232;2023-07-09T04:42:04;20.20;88.30
38090;DHT22;23904;52.322;10.232;2023-07-09T04:44:31;20.30;88.50
38090;DHT22;23904;52.322;10.232;2023-07-09T04:46:56;20.30;88.00
38090;DHT22;23904;52.322;10.232;2023-07-09T04:49:22;20.40;87.60
38090;DHT22;23904;52.322;10.232;2023-07-09T04:51:48;20.50;87.70
38090;DHT22;23904;52.322;10.232;2023-07-09T04:54:13;20.50;88.10
38090;DHT22;23904;52.322;10.232;2023-07-09T04:56:40;20.50;88.30
38090;DHT22;23904;52.322;10.232;2023-07-09T04:59:12;20.50;88.20
38090;DHT22;23904;52.322;10.232;2023-07-09T05:01:38;20.60;87.70
38090;DHT22;23904;52.322;10.232;2023-07-09T05:04:04;20.60;88.00
38090;DHT22;23904;52.322;10.232;2023-07-09T05:06:30;20.60;87.90
38090;DHT22;23904;52.322;10.232;2023-07-09T05:08:55;20.60;87.50
38090;DHT22;23904;52.322;10.232;2023-07-09T05:11:21;20.70;87.20
38090;DHT22;23904;52.322;10.232;2023-07-09T05:13:46;20.70;87.60
38090;DHT22;23904;52.322;10.232;2023-07-09T05:16:12;20.70;88.00
38090;DHT22;23904;52.322;10.232;2023-07-09T05:18:38;20.70;88.70
38090;DHT22;23904;52.322;10.232;2023-07-09T05:21:04;20.80;89.00
38090;DHT22;23904;52.322;10.232;2023-07-09T05:23:29;20.90;87.90
38090;DHT22;23904;52.322;10.232;2023-07-09T05:26:02;20.90;87.40
38090;DHT22;23904;52.322;10.232;2023-07-09T05:28:29;21.10;85.40
38090;DHT22;23904;52.322;10.232;2023-07-09T05:30:55;21.10;85.40
38090;DHT22;23904;52.322;10.232;2023-07-09T05:33:21;21.20;85.70
38090;DHT22;23904;52.322;10.232;2023-07-09T05:35:47;21.20;86.30
38090;DHT22;23904;52.322;10.232;2023-07-09T05:38:13;21.20;87.40
38090;DHT22;23904;52.322;10.232;2023-07-09T05:40:39;21.30;87.20
38090;DHT22;23904;52.322;10.232;2023-07-09T05:43:06;21.40;84.90
38090;DHT22;23904;52.322;10.232;2023-07-09T05:45:32;21.40;84.30
38090;DHT22;23904;52.322;10.232;2023-07-09T05:47:58;21.40;84.20
38090;DHT22;23904;52.322;10.232;2023-07-09T05:50:24;21.50;83.70
38090;DHT22;23904;52.322;10.232;2023-07-09T05:52:50;21.50;84.10
38090;DHT22;23904;52.322;10.232;2023-07-09T05:55:16;21.60;84.30
38090;DHT22;23904;52.322;10.232;2023-07-09T05:57:41;21.70;83.90
38090;DHT22;23904;52.322;10.232;2023-07-09T06:00:08;21.70;83.50
38090;DHT22;23904;52.322;10.232;2023-07-09T06:02:34;21.70;82.90
38090;DHT22;23904;52.322;10.232;2023-07-09T06:05:00;21.70;83.30
38090;DHT22;23904;52.322;10.232;2023-07-09T06:07:25;21.80;83.60
38090;DHT22;23904;52.322;10.232;2023-07-09T06:09:51;21.80;83.50
38090;DHT22;23904;52.322;10.232;2023-07-09T06:12:17;21.90;83.60
38090;DHT22;23904;52.322;10.232;2023-07-09T06:14:45;21.90;83.20
38090;DHT22;23904;52.322;10.232;2023-07-09T06:17:11;22.00;83.00
38090;DHT22;23904;52.322;10.232;2023-07-09T06:19:37;22.10;82.90
38090;DHT22;23904;52.322;10.232;2023-07-09T06:22:04;22.10;82.90
38090;DHT22;23904;52.322;10.232;2023-07-09T06:24:29;22.20;83.30
38090;DHT22;23904;52.322;10.232;2023-07-09T06:26:55;22.30;84.00
38090;DHT22;23904;52.322;10.232;2023-07-09T06:29:20;22.30;84.40
38090;DHT22;23904;52.322;10.232;2023-07-09T06:31:46;22.40;84.60
38090;DHT22;23904;52.322;10.232;2023-07-09T06:34:12;22.50;82.70
38090;DHT22;23904;52.322;10.232;2023-07-09T06:36:37;22.60;82.40
38090;DHT22;23904;52.322;10.232;2023-07-09T06:39:03;22.60;82.30
38090;DHT22;23904;52.322;10.232;2023-07-09T06:41:28;22.60;82.30
38090;DHT22;23904;52.322;10.232;2023-07-09T06:43:54;22.70;81.20
38090;DHT22;23904;52.322;10.232;2023-07-09T06:46:20;22.80;81.30
38090;DHT22;23904;52.322;10.232;2023-07-09T06:48:46;22.90;81.10
38090;DHT22;23904;52.322;10.232;2023-07-09T06:51:12;23.00;81.50
38090;DHT22;23904;52.322;10.232;2023-07-09T06:53:38;23.00;81.50
38090;DHT22;23904;52.322;10.232;2023-07-09T06:56:05;23.20;81.00
38090;DHT22;23904;52.322;10.232;2023-07-09T06:58:32;23.20;81.30
38090;DHT22;23904;52.322;10.232;2023-07-09T07:01:00;23.30;81.10
38090;DHT22;23904;52.322;10.232;2023-07-09T07:03:29;23.40;80.30
38090;DHT22;23904;52.322;10.232;2023-07-09T07:05:54;23.50;80.20
38090;DHT22;23904;52.322;10.232;2023-07-09T07:08:22;23.50;80.20
38090;DHT22;23904;52.322;10.232;2023-07-09T07:10:49;23.60;80.50
38090;DHT22;23904;52.322;10.232;2023-07-09T07:13:16;23.70;80.70
38090;DHT22;23904;52.322;10.232;2023-07-09T07:15:47;23.80;79.90
38090;DHT22;23904;52.322;10.232;2023-07-09T07:18:14;23.90;80.30
38090;DHT22;23904;52.322;10.232;2023-07-09T07:20:40;24.00;80.20
38090;DHT22;23904;52.322;10.232;2023-07-09T07:23:05;24.10;80.30
38090;DHT22;23904;52.322;10.232;2023-07-09T07:25:32;24.10;80.70
38090;DHT22;23904;52.322;10.232;2023-07-09T07:27:58;24.20;79.80
38090;DHT22;23904;52.322;10.232;2023-07-09T07:30:23;24.40;78.60
38090;DHT22;23904;52.322;10.232;2023-07-09T07:32:49;24.40;78.00
38090;DHT22;23904;52.322;10.232;2023-07-09T07:35:15;24.40;77.80
38090;DHT22;23904;52.322;10.232;2023-07-09T07:37:42;24.40;77.40
38090;DHT22;23904;52.322;10.232;2023-07-09T07:40:09;24.50;77.40
38090;DHT22;23904;52.322;10.232;2023-07-09T07:42:35;24.60;77.70
38090;DHT22;23904;52.322;10.232;2023-07-09T07:45:02;24.80;77.30
38090;DHT22;23904;52.322;10.232;2023-07-09T07:47:28;24.90;76.70
38090;DHT22;23904;52.322;10.232;2023-07-09T07:49:54;25.10;76.40
38090;DHT22;23904;52.322;10.232;2023-07-09T07:52:20;25.20;76.10
38090;DHT22;23904;52.322;10.232;2023-07-09T07:54:46;25.40;74.90
38090;DHT22;23904;52.322;10.232;2023-07-09T07:57:12;25.60;75.80
38090;DHT22;23904;52.322;10.232;2023-07-09T07:59:38;25.70;75.50
38090;DHT22;23904;52.322;10.232;2023-07-09T08:02:05;25.80;75.60
38090;DHT22;23904;52.322;10.232;2023-07-09T08:04:31;26.00;75.90
38090;DHT22;23904;52.322;10.232;2023-07-09T08:06:57;26.10;75.30
38090;DHT22;23904;52.322;10.232;2023-07-09T08:09:24;26.10;74.90
38090;DHT22;23904;52.322;10.232;2023-07-09T08:11:50;26.30;74.00
38090;DHT22;23904;52.322;10.232;2023-07-09T08:14:16;26.40;74.60
38090;DHT22;23904;52.322;10.232;2023-07-09T08:16:41;26.60;74.00
38090;DHT22;23904;52.322;10.232;2023-07-09T08:19:07;26.70;72.10
38090;DHT22;23904;52.322;10.232;2023-07-09T08:21:33;26.80;72.10
38090;DHT22;23904;52.322;10.232;2023-07-09T08:23:58;26.90;71.70
38090;DHT22;23904;52.322;10.232;2023-07-09T08:26:24;26.90;71.70
38090;DHT22;23904;52.322;10.232;2023-07-09T08:28:51;27.10;71.70
38090;DHT22;23904;52.322;10.232;2023-07-09T08:31:17;27.20;71.90
38090;DHT22;23904;52.322;10.232;2023-07-09T08:33:42;27.40;71.70
38090;DHT22;23904;52.322;10.232;2023-07-09T08:36:08;27.60;70.80
38090;DHT22;23904;52.322;10.232;2023-07-09T08:38:34;27.80;71.10
38090;DHT22;23904;52.322;10.232;2023-07-09T08:43:34;28.10;70.40
38090;DHT22;23904;52.322;10.232;2023-07-09T08:48:54;28.60;70.80
38090;DHT22;23904;52.322;10.232;2023-07-09T08:51:31;28.90;69.60
38090;DHT22;23904;52.322;10.232;2023-07-09T08:54:02;29.30;69.10
38090;DHT22;23904;52.322;10.232;2023-07-09T08:56:31;29.80;67.30
38090;DHT22;23904;52.322;10.232;2023-07-09T08:58:59;30.30;67.70
38090;DHT22;23904;52.322;10.232;2023-07-09T09:01:36;31.10;65.80
38090;DHT22;23904;52.322;10.232;2023-07-09T09:04:13;32.20;63.20
38090;DHT22;23904;52.322;10.232;2023-07-09T09:06:47;33.10;59.80
38090;DHT22;23904;52.322;10.232;2023-07-09T09:09:56;33.90;58.20
38090;DHT22;23904;52.322;10.232;2023-07-09T09:12:30;34.90;54.80
38090;DHT22;23904;52.322;10.232;2023-07-09T09:15:04;35.30;54.60
38090;DHT22;23904;52.322;10.232;2023-07-09T09:17:38;35.50;54.20
38090;DHT22;23904;52.322;10.232;2023-07-09T09:20:12;36.00;54.00
38090;DHT22;23904;52.322;10.232;2023-07-09T09:22:47;36.40;53.10
38090;DHT22;23904;52.322;10.232;2023-07-09T09:27:41;37.30;51.60
38090;DHT22;23904;52.322;10.232;2023-07-09T09:30:25;37.70;50.30
38090;DHT22;23904;52.322;10.232;2023-07-09T09:32:57;38.40;49.00
38090;DHT22;23904;52.322;10.232;2023-07-09T09:35:32;39.10;48.40
38090;DHT22;23904;52.322;10.232;2023-07-09T09:38:00;39.30;47.90
38090;DHT22;23904;52.322;10.232;2023-07-09T09:40:28;39.40;47.70
38090;DHT22;23904;52.322;10.232;2023-07-09T09:42:57;39.70;46.60
38090;DHT22;23904;52.322;10.232;2023-07-09T09:45:37;39.70;46.20
38090;DHT22;23904;52.322;10.232;2023-07-09T09:48:26;40.10;45.50
38090;DHT22;23904;52.322;10.232;2023-07-09T09:50:55;39.70;45.90
38090;DHT22;23904;52.322;10.232;2023-07-09T09:53:27;39.70;46.80
38090;DHT22;23904;52.322;10.232;2023-07-09T09:55:55;40.00;46.80
38090;DHT22;23904;52.322;10.232;2023-07-09T09:58:29;40.50;45.70
38090;DHT22;23904;52.322;10.232;2023-07-09T10:00:57;41.00;44.30
38090;DHT22;23904;52.322;10.232;2023-07-09T10:03:38;41.10;43.00
38090;DHT22;23904;52.322;10.232;2023-07-09T10:06:12;41.10;43.20
38090;DHT22;23904;52.322;10.232;2023-07-09T10:09:02;41.40;42.60
38090;DHT22;23904;52.322;10.232;2023-07-09T10:11:44;41.60;41.80
38090;DHT22;23904;52.322;10.232;2023-07-09T10:17:14;41.60;41.50
38090;DHT22;23904;52.322;10.232;2023-07-09T10:19:57;41.80;41.80
38090;DHT22;23904;52.322;10.232;2023-07-09T10:30:48;42.10;38.70
38090;DHT22;23904;52.322;10.232;2023-07-09T10:33:28;42.70;37.90
38090;DHT22;23904;52.322;10.232;2023-07-09T10:39:34;41.60;39.50
38090;DHT22;23904;52.322;10.232;2023-07-09T10:42:03;41.90;39.40
38090;DHT22;23904;52.322;10.232;2023-07-09T10:44:36;41.90;38.10
38090;DHT22;23904;52.322;10.232;2023-07-09T10:47:13;41.80;38.70
38090;DHT22;23904;52.322;10.232;2023-07-09T10:49:49;41.30;37.70
38090;DHT22;23904;52.322;10.232;2023-07-09T10:52:37;40.80;39.00
38090;DHT22;23904;52.322;10.232;2023-07-09T10:55:12;41.50;39.00
38090;DHT22;23904;52.322;10.232;2023-07-09T10:57:51;41.50;37.90
38090;DHT22;23904;52.322;10.232;2023-07-09T11:00:22;41.20;39.30
38090;DHT22;23904;52.322;10.232;2023-07-09T11:03:04;41.60;39.20
38090;DHT22;23904;52.322;10.232;2023-07-09T11:05:38;42.10;37.10
38090;DHT22;23904;52.322;10.232;2023-07-09T11:08:11;42.60;35.70
38090;DHT22;23904;52.322;10.232;2023-07-09T11:10:44;41.80;37.50
38090;DHT22;23904;52.322;10.232;2023-07-09T11:13:30;41.90;37.60
38090;DHT22;23904;52.322;10.232;2023-07-09T11:16:01;42.00;37.60
38090;DHT22;23904;52.322;10.232;2023-07-09T11:18:31;41.40;38.20
38090;DHT22;23904;52.322;10.232;2023-07-09T11:21:06;41.30;38.30
38090;DHT22;23904;52.322;10.232;2023-07-09T11:23:46;41.60;39.20
38090;DHT22;23904;52.322;10.232;2023-07-09T11:26:28;42.10;38.70
38090;DHT22;23904;52.322;10.232;2023-07-09T11:29:17;42.80;38.20
38090;DHT22;23904;52.322;10.232;2023-07-09T11:31:44;42.70;37.50
38090;DHT22;23904;52.322;10.232;2023-07-09T11:34:16;42.90;36.20
38090;DHT22;23904;52.322;10.232;2023-07-09T11:36:50;43.00;34.90
38090;DHT22;23904;52.322;10.232;2023-07-09T11:41:57;42.90;34.30
38090;DHT22;23904;52.322;10.232;2023-07-09T11:44:26;43.10;34.20
38090;DHT22;23904;52.322;10.232;2023-07-09T11:47:20;43.30;34.00
38090;DHT22;23904;52.322;10.232;2023-07-09T11:50:04;43.40;33.80
38090;DHT22;23904;52.322;10.232;2023-07-09T11:52:45;42.90;33.90
38090;DHT22;23904;52.322;10.232;2023-07-09T11:55:38;42.50;36.20
38090;DHT22;23904;52.322;10.232;2023-07-09T11:58:09;43.20;34.20
38090;DHT22;23904;52.322;10.232;2023-07-09T12:00:41;43.50;35.10
38090;DHT22;23904;52.322;10.232;2023-07-09T12:03:29;43.10;35.40
38090;DHT22;23904;52.322;10.232;2023-07-09T12:06:07;43.60;34.10
38090;DHT22;23904;52.322;10.232;2023-07-09T12:08:42;43.00;34.60
38090;DHT22;23904;52.322;10.232;2023-07-09T12:11:42;42.60;36.40
38090;DHT22;23904;52.322;10.232;2023-07-09T12:14:17;42.90;37.00
38090;DHT22;23904;52.322;10.232;2023-07-09T12:16:49;43.10;37.90
38090;DHT22;23904;52.322;10.232;2023-07-09T12:19:19;43.20;37.90
38090;DHT22;23904;52.322;10.232;2023-07-09T12:21:48;43.40;35.40
38090;DHT22;23904;52.322;10.232;2023-07-09T12:24:23;43.20;36.40
38090;DHT22;23904;52.322;10.232;2023-07-09T12:26:55;42.90;35.80
38090;DHT22;23904;52.322;10.232;2023-07-09T12:29:29;42.90;37.20
38090;DHT22;23904;52.322;10.232;2023-07-09T12:31:57;42.40;36.60
38090;DHT22;23904;52.322;10.232;2023-07-09T12:34:24;42.20;36.20
38090;DHT22;23904;52.322;10.232;2023-07-09T12:36:52;42.50;35.30
38090;DHT22;23904;52.322;10.232;2023-07-09T12:39:24;42.30;36.00
38090;DHT22;23904;52.322;10.232;2023-07-09T12:41:55;42.40;33.30
38090;DHT22;23904;52.322;10.232;2023-07-09T12:44:23;42.40;33.20
38090;DHT22;23904;52.322;10.232;2023-07-09T12:46:50;42.50;35.00
38090;DHT22;23904;52.322;10.232;2023-07-09T12:49:28;41.90;35.50
38090;DHT22;23904;52.322;10.232;2023-07-09T12:51:56;41.30;36.40
38090;DHT22;23904;52.322;10.232;2023-07-09T12:54:23;40.70;37.60
38090;DHT22;23904;52.322;10.232;2023-07-09T12:56:53;40.10;37.50
38090;DHT22;23904;52.322;10.232;2023-07-09T12:59:26;39.40;38.70
38090;DHT22;23904;52.322;10.232;2023-07-09T13:02:01;39.20;38.50
38090;DHT22;23904;52.322;10.232;2023-07-09T13:04:38;38.70;38.60
38090;DHT22;23904;52.322;10.232;2023-07-09T13:07:05;38.30;36.00
38090;DHT22;23904;52.322;10.232;2023-07-09T13:09:48;38.20;37.10
38090;DHT22;23904;52.322;10.232;2023-07-09T13:12:14;37.90;37.50
38090;DHT22;23904;52.322;10.232;2023-07-09T13:14:40;37.70;37.20
38090;DHT22;23904;52.322;10.232;2023-07-09T13:17:07;37.60;38.50
38090;DHT22;23904;52.322;10.232;2023-07-09T13:19:34;37.30;37.70
38090;DHT22;23904;52.322;10.232;2023-07-09T13:22:00;37.10;38.10
38090;DHT22;23904;52.322;10.232;2023-07-09T13:24:28;37.10;38.50
38090;DHT22;23904;52.322;10.232;2023-07-09T13:26:55;37.00;38.50
38090;DHT22;23904;52.322;10.232;2023-07-09T13:29:24;36.80;38.90
38090;DHT22;23904;52.322;10.232;2023-07-09T13:31:50;36.90;39.30
38090;DHT22;23904;52.322;10.232;2023-07-09T13:34:27;36.80;40.00
38090;DHT22;23904;52.322;10.232;2023-07-09T13:36:54;36.60;40.50
38090;DHT22;23904;52.322;10.232;2023-07-09T13:39:22;36.60;39.80
38090;DHT22;23904;52.322;10.232;2023-07-09T13:41:49;36.40;41.20
38090;DHT22;23904;52.322;10.232;2023-07-09T13:44:19;36.40;40.10
38090;DHT22;23904;52.322;10.232;2023-07-09T13:46:46;36.30;40.30
38090;DHT22;23904;52.322;10.232;2023-07-09T13:49:15;36.50;41.10
38090;DHT22;23904;52.322;10.232;2023-07-09T13:51:44;36.50;40.40
38090;DHT22;23904;52.322;10.232;2023-07-09T13:54:17;36.50;39.90
38090;DHT22;23904;52.322;10.232;2023-07-09T13:56:45;36.50;40.40
38090;DHT22;23904;52.322;10.232;2023-07-09T13:59:29;36.30;40.90
38090;DHT22;23904;52.322;10.232;2023-07-09T14:01:56;36.30;40.60
38090;DHT22;23904;52.322;10.232;2023-07-09T14:04:24;36.20;40.40
38090;DHT22;23904;52.322;10.232;2023-07-09T14:06:51;36.00;41.00
38090;DHT22;23904;52.322;10.232;2023-07-09T14:09:16;36.00;41.90
38090;DHT22;23904;52.322;10.232;2023-07-09T14:11:49;36.00;41.80
38090;DHT22;23904;52.322;10.232;2023-07-09T14:14:22;36.10;41.20
38090;DHT22;23904;52.322;10.232;2023-07-09T14:16:50;36.10;40.90
38090;DHT22;23904;52.322;10.232;2023-07-09T14:19:20;36.10;41.60
38090;DHT22;23904;52.322;10.232;2023-07-09T14:21:48;35.90;41.10
38090;DHT22;23904;52.322;10.232;2023-07-09T14:24:19;35.90;40.90
38090;DHT22;23904;52.322;10.232;2023-07-09T14:26:53;35.70;41.80
38090;DHT22;23904;52.322;10.232;2023-07-09T14:29:22;35.70;40.70
38090;DHT22;23904;52.322;10.232;2023-07-09T14:31:49;35.60;41.60
38090;DHT22;23904;52.322;10.232;2023-07-09T14:34:23;35.40;41.30
38090;DHT22;23904;52.322;10.232;2023-07-09T14:36:58;35.30;41.10
38090;DHT22;23904;52.322;10.232;2023-07-09T14:39:28;35.20;41.80
38090;DHT22;23904;52.322;10.232;2023-07-09T14:41:54;35.20;42.40
38090;DHT22;23904;52.322;10.232;2023-07-09T14:44:30;35.20;42.00
38090;DHT22;23904;52.322;10.232;2023-07-09T14:46:59;35.30;42.60
38090;DHT22;23904;52.322;10.232;2023-07-09T14:49:27;35.30;42.00
38090;DHT22;23904;52.322;10.232;2023-07-09T14:51:54;35.20;43.50
38090;DHT22;23904;52.322;10.232;2023-07-09T14:54:28;35.20;42.80
38090;DHT22;23904;52.322;10.232;2023-07-09T14:56:56;35.30;42.60
38090;DHT22;23904;52.322;10.232;2023-07-09T14:59:23;35.40;42.80
38090;DHT22;23904;52.322;10.232;2023-07-09T15:01:49;35.10;42.00
38090;DHT22;23904;52.322;10.232;2023-07-09T15:06:50;34.80;43.70
38090;DHT22;23904;52.322;10.232;2023-07-09T15:09:19;34.90;43.20
38090;DHT22;23904;52.322;10.232;2023-07-09T15:11:48;34.70;42.80
38090;DHT22;23904;52.322;10.232;2023-07-09T15:14:16;34.70;43.20
38090;DHT22;23904;52.322;10.232;2023-07-09T15:16:42;34.70;43.80
38090;DHT22;23904;52.322;10.232;2023-07-09T15:19:12;34.80;44.10
38090;DHT22;23904;52.322;10.232;2023-07-09T15:21:41;34.60;43.10
38090;DHT22;23904;52.322;10.232;2023-07-09T15:26:53;34.50;44.60
38090;DHT22;23904;52.322;10.232;2023-07-09T15:29:20;34.50;45.00
38090;DHT22;23904;52.322;10.232;2023-07-09T15:31:46;34.50;45.60
38090;DHT22;23904;52.322;10.232;2023-07-09T15:34:12;34.60;45.20
38090;DHT22;23904;52.322;10.232;2023-07-09T15:36:43;34.60;45.40
38090;DHT22;23904;52.322;10.232;2023-07-09T15:39:11;34.40;44.70
38090;DHT22;23904;52.322;10.232;2023-07-09T15:41:38;34.40;45.40
38090;DHT22;23904;52.322;10.232;2023-07-09T15:44:04;34.30;44.20
38090;DHT22;23904;52.322;10.232;2023-07-09T15:46:29;34.20;45.00
38090;DHT22;23904;52.322;10.232;2023-07-09T15:48:56;34.20;45.80
38090;DHT22;23904;52.322;10.232;2023-07-09T15:51:22;34.10;47.00
38090;DHT22;23904;52.322;10.232;2023-07-09T15:53:47;34.10;45.70
38090;DHT22;23904;52.322;10.232;2023-07-09T15:56:22;34.10;45.40
38090;DHT22;23904;52.322;10.232;2023-07-09T15:58:54;33.90;45.40